createdAt,value
2023-05-14T00:03:00.230Z,73.10
2023-05-14T00:08:03.788Z,73.05
2023-05-14T00:13:09.551Z,72.64
2023-05-14T00:18:14.182Z,73.44
2023-05-14T00:23:17.977Z,73.06
2023-05-14T00:28:21.929Z,73.87
2023-05-14T00:33:26.689Z,74.19
2023-05-14T00:38:30.716Z,74.57
2023-05-14T00:43:35.042Z,74.66
2023-05-14T00:48:39.846Z,74.75
2023-05-14T00:53:43.129Z,75.23
2023-05-14T00:58:47.138Z,74.73
2023-05-14T01:03:53.528Z,75.48
2023-05-14T01:09:26.152Z,75.59
2023-05-14T01:14:38.981Z,76.07
2023-05-14T01:19:45.730Z,74.98
2023-05-14T01:24:50.934Z,75.10
2023-05-14T01:30:00.979Z,75.01
2023-05-14T01:35:05.390Z,75.52
2023-05-14T01:40:13.197Z,75.94
2023-05-14T01:45:16.900Z,75.58
2023-05-14T01:50:22.012Z,75.85
2023-05-14T01:55:27.064Z,75.75
2023-05-14T02:00:34.063Z,75.76
2023-05-14T02:05:37.372Z,76.53
2023-05-14T02:10:45.920Z,76.35
2023-05-14T02:15:52.008Z,77.21
2023-05-14T02:20:55.607Z,76.91
2023-05-14T02:26:00.226Z,77.23
2023-05-14T02:31:03.656Z,77.87
2023-05-14T02:36:07.323Z,78.02
2023-05-14T02:41:11.864Z,78.24
2023-05-14T02:46:15.202Z,78.20
2023-05-14T02:51:18.850Z,78.04
2023-05-14T02:56:23.671Z,78.57
2023-05-14T03:01:26.930Z,78.73
2023-05-14T03:06:31.341Z,79.17
2023-05-14T03:11:36.033Z,79.26
2023-05-14T03:16:40.163Z,78.98
2023-05-14T03:21:43.496Z,79.71
2023-05-14T03:26:48.136Z,80.05
2023-05-14T03:31:51.587Z,80.77
2023-05-14T03:36:54.882Z,81.11
2023-05-14T03:41:59.820Z,82.47
2023-05-14T03:47:02.986Z,81.91
2023-05-14T03:52:06.302Z,82.48
2023-05-14T03:57:11.026Z,82.12
2023-05-14T04:02:14.251Z,82.38
2023-05-14T04:07:17.519Z,82.51
2023-05-14T04:12:22.461Z,82.54
2023-05-14T04:17:25.798Z,82.51
2023-05-14T04:22:28.979Z,82.89
2023-05-14T04:27:34.904Z,83.02
2023-05-14T04:32:38.282Z,83.15
2023-05-14T04:37:41.950Z,83.42
2023-05-14T04:42:46.747Z,83.82
2023-05-14T04:47:50.128Z,82.96
2023-05-14T04:52:55.904Z,82.31
2023-05-14T04:58:00.591Z,81.86
2023-05-14T05:03:04.194Z,80.93
2023-05-14T05:08:07.573Z,78.29
2023-05-14T05:13:12.176Z,73.88
2023-05-14T05:18:15.596Z,73.68
2023-05-14T05:23:18.803Z,73.50
2023-05-14T05:28:23.543Z,71.82
2023-05-14T05:33:27.067Z,64.16
2023-05-14T05:38:30.394Z,58.04
2023-05-14T05:43:34.944Z,51.45
2023-05-14T05:48:38.138Z,47.59
2023-05-14T05:53:41.373Z,46.30
2023-05-14T05:58:45.987Z,42.08
2023-05-14T06:03:49.328Z,40.23
2023-05-14T06:08:52.736Z,36.52
2023-05-14T06:13:57.468Z,34.58
2023-05-14T06:19:00.647Z,32.38
2023-05-14T06:24:04.115Z,31.07
2023-05-14T06:29:08.791Z,29.41
2023-05-14T06:34:17.283Z,28.39
2023-05-14T06:39:20.486Z,27.17
2023-05-14T06:44:27.156Z,28.00
2023-05-14T06:49:30.497Z,28.33
2023-05-14T06:54:33.676Z,31.28
2023-05-14T06:59:38.379Z,31.27
2023-05-14T07:04:42.167Z,31.15
2023-05-14T07:09:49.007Z,31.11
2023-05-14T07:14:53.747Z,32.82
2023-05-14T07:19:56.960Z,31.03
2023-05-14T07:25:00.248Z,32.54
2023-05-14T07:30:05.191Z,33.62
2023-05-14T07:35:09.441Z,34.12
2023-05-14T07:40:13.112Z,33.99
2023-05-14T07:45:17.865Z,35.11
2023-05-14T07:50:21.257Z,36.85
2023-05-14T07:55:24.788Z,38.83
2023-05-14T08:00:32.074Z,38.22
2023-05-14T08:05:35.379Z,38.89
2023-05-14T08:10:38.837Z,39.44
2023-05-14T08:15:43.501Z,39.16
2023-05-14T08:20:47.229Z,39.13
2023-05-14T08:25:50.398Z,40.45
2023-05-14T08:30:54.999Z,40.29
2023-05-14T08:36:00.599Z,40.37
2023-05-14T08:41:06.692Z,41.82
2023-05-14T08:46:15.232Z,43.05
2023-05-14T08:51:18.452Z,42.58
2023-05-14T08:56:22.042Z,44.13
2023-05-14T09:01:27.255Z,44.83
2023-05-14T09:06:33.092Z,43.09
2023-05-14T09:11:41.615Z,42.81
2023-05-14T09:16:48.295Z,44.32
2023-05-14T09:21:51.749Z,43.57
2023-05-14T09:26:57.385Z,43.55
2023-05-14T09:32:05.718Z,43.74
2023-05-14T09:37:10.585Z,44.11
2023-05-14T09:42:13.784Z,44.00
2023-05-14T09:47:19.025Z,43.44
2023-05-14T09:52:22.281Z,43.11
2023-05-14T09:57:26.885Z,43.73
2023-05-14T10:02:38.274Z,43.85
2023-05-14T10:07:47.682Z,43.35
2023-05-14T10:12:54.580Z,43.37
2023-05-14T10:18:04.776Z,41.01
2023-05-14T10:23:08.231Z,40.79
2023-05-14T10:28:11.917Z,41.45
2023-05-14T10:33:18.536Z,40.48
2023-05-14T10:38:24.499Z,41.83
2023-05-14T10:43:30.994Z,42.19
2023-05-14T10:48:38.016Z,41.91
2023-05-14T10:53:43.352Z,42.06
2023-05-14T10:58:47.404Z,42.11
2023-05-14T11:03:56.112Z,42.93
2023-05-14T11:09:02.008Z,43.08
2023-05-14T11:14:05.321Z,43.17
2023-05-14T11:19:10.193Z,43.15
2023-05-14T11:24:14.691Z,42.61
2023-05-14T11:29:19.177Z,40.83
2023-05-14T11:34:24.064Z,40.42
2023-05-14T11:39:27.305Z,40.18
2023-05-14T11:44:30.422Z,40.68
2023-05-14T11:49:37.521Z,40.46
2023-05-14T11:54:40.814Z,42.74
2023-05-14T11:59:45.036Z,44.00
2023-05-14T12:04:53.294Z,44.91
2023-05-14T12:10:01.974Z,44.15
2023-05-14T12:15:12.812Z,44.21
2023-05-14T12:20:18.524Z,44.44
2023-05-14T12:25:21.791Z,44.93
2023-05-14T12:30:25.270Z,46.01
2023-05-14T12:35:30.609Z,46.67
2023-05-14T12:40:33.873Z,47.11
2023-05-14T12:45:36.983Z,47.12
2023-05-14T12:50:41.840Z,47.20
2023-05-14T12:55:45.183Z,47.07
2023-05-14T13:00:48.654Z,47.28
2023-05-14T13:05:55.151Z,48.46
2023-05-14T13:10:58.809Z,48.31
2023-05-14T13:16:02.181Z,46.95
2023-05-14T13:21:06.930Z,45.67
2023-05-14T13:26:10.131Z,46.32
2023-05-14T13:31:15.907Z,46.08
2023-05-14T13:36:21.146Z,45.95
2023-05-14T13:41:24.484Z,46.76
2023-05-14T13:46:27.720Z,46.02
2023-05-14T13:51:32.544Z,46.21
2023-05-14T13:56:35.905Z,46.39
2023-05-14T14:01:39.192Z,45.99
2023-05-14T14:06:46.711Z,46.86
2023-05-14T14:11:50.143Z,46.95
2023-05-14T14:16:53.415Z,47.39
2023-05-14T14:21:58.176Z,46.88
2023-05-14T14:27:02.479Z,46.62
2023-05-14T14:32:08.067Z,46.23
2023-05-14T14:37:12.933Z,46.38
2023-05-14T14:42:16.150Z,47.10
2023-05-14T14:47:19.432Z,46.70
2023-05-14T14:52:24.641Z,45.84
2023-05-14T14:57:30.140Z,46.59
2023-05-14T15:02:33.640Z,45.75
2023-05-14T15:07:40.683Z,46.47
2023-05-14T15:12:44.578Z,47.04
2023-05-14T15:17:47.993Z,47.25
2023-05-14T15:22:53.970Z,47.39
2023-05-14T15:27:57.179Z,47.91
2023-05-14T15:33:03.127Z,48.34
2023-05-14T15:38:08.366Z,48.82
2023-05-14T15:43:14.205Z,48.77
2023-05-14T15:48:17.738Z,48.96
2023-05-14T15:53:28.116Z,48.79
2023-05-14T15:58:34.049Z,49.28
2023-05-14T16:03:37.552Z,49.13
2023-05-14T16:08:46.402Z,49.43
2023-05-14T16:13:49.934Z,49.54
2023-05-14T16:18:53.083Z,49.73
2023-05-14T16:23:57.772Z,49.64
2023-05-14T16:29:00.987Z,49.58
2023-05-14T16:34:05.974Z,50.15
2023-05-14T16:39:11.598Z,49.87
2023-05-14T16:44:14.838Z,49.25
2023-05-14T16:49:22.355Z,49.23
2023-05-14T16:54:29.957Z,49.44
2023-05-14T16:59:36.436Z,48.95
2023-05-14T17:04:42.331Z,48.67
2023-05-14T17:09:47.148Z,49.01
2023-05-14T17:14:50.481Z,48.37
2023-05-14T17:19:53.996Z,48.06
2023-05-14T17:24:58.724Z,48.08
2023-05-14T17:30:02.290Z,47.98
2023-05-14T17:35:06.633Z,48.37
2023-05-14T17:40:12.530Z,50.46
2023-05-14T17:45:20.789Z,51.78
2023-05-14T17:50:24.327Z,52.67
2023-05-14T17:55:29.070Z,52.39
2023-05-14T18:00:32.546Z,52.52
2023-05-14T18:05:36.165Z,52.96
2023-05-14T18:10:40.849Z,53.21
2023-05-14T18:15:44.435Z,53.36
2023-05-14T18:20:47.859Z,53.77
2023-05-14T18:25:52.630Z,54.90
2023-05-14T18:30:56.160Z,55.00
2023-05-14T18:35:59.810Z,55.61
2023-05-14T18:41:04.565Z,56.52
2023-05-14T18:46:07.968Z,57.52
2023-05-14T18:51:12.480Z,57.96
2023-05-14T18:56:17.175Z,58.37
2023-05-14T19:01:21.280Z,59.36
2023-05-14T19:06:24.913Z,59.98
2023-05-14T19:11:45.175Z,61.27
2023-05-14T19:16:49.392Z,61.17
2023-05-14T19:21:55.004Z,61.80
2023-05-14T19:27:02.663Z,62.76
2023-05-14T19:32:06.933Z,63.02
2023-05-14T19:37:10.234Z,64.16
2023-05-14T19:42:14.843Z,64.17
2023-05-14T19:47:18.226Z,64.49
2023-05-14T19:52:21.642Z,65.03
2023-05-14T19:57:26.637Z,65.79
2023-05-14T20:02:30.213Z,65.86
2023-05-14T20:07:34.107Z,66.41
2023-05-14T20:12:38.945Z,66.95
2023-05-14T20:17:44.943Z,67.15
2023-05-14T20:22:48.244Z,68.33
2023-05-14T20:27:53.481Z,69.57
2023-05-14T20:32:57.517Z,69.19
2023-05-14T20:38:03.605Z,70.06
2023-05-14T20:43:08.275Z,71.11
2023-05-14T20:48:15.133Z,71.13
2023-05-14T20:53:18.385Z,71.80
2023-05-14T20:58:22.992Z,72.69
2023-05-14T21:03:28.116Z,73.60
2023-05-14T21:08:33.078Z,74.53
2023-05-14T21:13:38.298Z,75.73
2023-05-14T21:18:41.669Z,76.24
2023-05-14T21:23:45.046Z,76.77
2023-05-14T21:28:49.973Z,77.49
2023-05-14T21:33:53.566Z,78.51
2023-05-14T21:38:56.781Z,77.61
2023-05-14T21:44:01.397Z,78.40
2023-05-14T21:49:05.052Z,79.38
2023-05-14T21:54:09.069Z,79.21
2023-05-14T21:59:13.770Z,80.21
2023-05-14T22:04:17.802Z,80.08
2023-05-14T22:09:21.210Z,81.41
2023-05-14T22:14:27.453Z,82.58
2023-05-14T22:19:31.346Z,82.75
2023-05-14T22:24:34.935Z,83.45
2023-05-14T22:29:39.524Z,84.66
2023-05-14T22:34:42.696Z,85.36
2023-05-14T22:39:46.084Z,85.47
2023-05-14T22:44:50.746Z,86.02
2023-05-14T22:49:54.096Z,86.04
2023-05-14T22:54:57.298Z,87.94
2023-05-14T23:00:01.914Z,88.35
2023-05-14T23:05:05.833Z,89.12
2023-05-14T23:10:09.697Z,89.21
2023-05-14T23:15:14.468Z,90.41
2023-05-14T23:20:20.442Z,90.91
2023-05-14T23:25:23.814Z,91.17
2023-05-14T23:30:28.536Z,91.82
2023-05-14T23:35:35.300Z,92.44
2023-05-14T23:40:38.847Z,93.33
2023-05-14T23:45:43.671Z,94.14
2023-05-14T23:50:46.827Z,94.92
2023-05-14T23:55:50.562Z,95.20
